NCAR-RAP Real-Time Weather Data

Output produced by METARs form (08 May 2021  16:29 UTC)
found at http://weather.rap.ucar.edu/surface/
 
KCAE 081556Z 26013KT 10SM FEW250 23/04 A3007 RMK AO2 SLP182 T02330039
KCAE 081456Z 28011KT 10SM CLR 22/04 A3009 RMK AO2 SLP186 T02220044 55002
KCAE 081356Z 25006KT 10SM CLR 19/07 A3008 RMK AO2 SLP185 T01940067
KCAE 081256Z 25006KT 10SM CLR 16/07 A3009 RMK AO2 SLP187 T01560067
KCAE 081156Z 24004KT 10SM CLR 11/06 A3009 RMK AO2 SLP189 T01060056 10106 20067 51013
KCAE 081056Z 00000KT 10SM CLR 07/04 A3009 RMK AO2 SLP188 T00670039
KCAE 080956Z 25003KT 10SM CLR 07/04 A3007 RMK AO2 SLP182 T00720039
KCAE 080856Z 24003KT 10SM CLR 08/04 A3005 RMK AO2 SLP176 T00780039 51005
KCAE 080756Z 25005KT 10SM CLR 08/04 A3005 RMK AO2 SLP173 T00830044
KCAE 080656Z 25003KT 10SM CLR 09/04 A3005 RMK AO2 SLP174 T00890044
KCAE 080556Z 27004KT 10SM CLR 09/05 A3004 RMK AO2 SLP171 T00890050 10200 20083 51005
KCAE 080456Z 28003KT 10SM CLR 11/05 A3003 RMK AO2 SLP169 T01110050 402330100
KCAE 080356Z 25004KT 10SM CLR 10/05 A3003 RMK AO2 SLP168 T01000050
KCAE 080256Z 32004KT 10SM CLR 17/00 A3002 RMK AO2 SLP165 T01670000 51021
KCAE 080156Z 32005KT 10SM CLR 17/M01 A3001 RMK AO2 SLP160 T01721006
KCAE 080056Z 33005KT 10SM CLR 18/M01 A2998 RMK AO2 SLP150 T01831006